createdAt,value
2018-05-27T00:02:00.379Z,88.70
2018-05-27T00:07:04.231Z,88.80
2018-05-27T00:12:07.312Z,88.80
2018-05-27T00:17:10.396Z,89.00
2018-05-27T00:22:14.245Z,89.60
2018-05-27T00:27:17.729Z,89.80
2018-05-27T00:37:26.376Z,90.00
2018-05-27T00:42:29.857Z,90.00
2018-05-27T00:52:38.517Z,90.40
2018-05-27T01:02:46.049Z,90.70
2018-05-27T01:07:49.133Z,90.90
2018-05-27T01:17:56.661Z,91.60
2018-05-27T01:23:00.513Z,91.70
2018-05-27T01:28:04.365Z,91.90
2018-05-27T01:33:07.446Z,92.00
2018-05-27T01:43:20.084Z,91.70
2018-05-27T01:48:23.938Z,92.20
2018-05-27T01:53:27.024Z,92.00
2018-05-27T02:03:34.944Z,92.10
2018-05-27T02:08:39.175Z,92.60
2018-05-27T02:13:43.017Z,92.70
2018-05-27T02:23:50.944Z,92.70
2018-05-27T02:28:54.032Z,92.70
2018-05-27T02:33:57.121Z,92.60
2018-05-27T02:39:01.715Z,92.70
2018-05-27T02:54:13.679Z,92.90
2018-05-27T02:59:16.758Z,93.00
2018-05-27T03:04:20.610Z,92.90
2018-05-27T03:09:24.471Z,93.00
2018-05-27T03:19:32.394Z,92.90
2018-05-27T03:24:36.237Z,92.90
2018-05-27T03:29:40.467Z,92.90
2018-05-27T03:34:43.553Z,92.90
2018-05-27T03:39:47.408Z,92.90
2018-05-27T03:44:50.497Z,92.90
2018-05-27T03:49:53.590Z,92.70
2018-05-27T03:54:57.437Z,92.50
2018-05-27T04:00:00.922Z,92.50
2018-05-27T04:05:22.828Z,92.40
2018-05-27T04:20:35.562Z,92.40
2018-05-27T04:30:44.389Z,92.50
2018-05-27T04:35:47.471Z,92.50
2018-05-27T04:40:50.550Z,92.40
2018-05-27T04:50:58.833Z,91.90
2018-05-27T04:56:01.930Z,91.90
2018-05-27T05:01:05.017Z,91.70
2018-05-27T05:11:14.058Z,91.30
2018-05-27T05:16:17.150Z,91.10
2018-05-27T05:21:21.377Z,91.10
2018-05-27T05:26:24.463Z,90.70
2018-05-27T05:36:32.379Z,90.60
2018-05-27T05:41:36.979Z,90.70
2018-05-27T05:46:40.457Z,90.30
2018-05-27T05:51:44.313Z,90.40
2018-05-27T05:56:48.168Z,90.00
2018-05-27T06:06:55.686Z,88.10
2018-05-27T06:11:59.174Z,86.80
2018-05-27T06:22:07.126Z,86.70
2018-05-27T06:27:10.977Z,87.20
2018-05-27T06:32:15.210Z,87.10
2018-05-27T06:37:19.062Z,88.50
2018-05-27T06:42:22.157Z,88.90
2018-05-27T06:47:25.663Z,87.80
2018-05-27T06:52:28.767Z,88.10
2018-05-27T06:57:32.274Z,86.60
2018-05-27T07:02:35.373Z,87.20
2018-05-27T07:12:43.318Z,87.80
2018-05-27T07:17:47.557Z,87.00
2018-05-27T07:22:51.427Z,85.30
2018-05-27T07:27:54.509Z,85.10
2018-05-27T07:32:58.368Z,83.70
2018-05-27T07:38:01.453Z,82.00
2018-05-27T07:48:09.761Z,78.60
2018-05-27T07:53:12.856Z,74.90
2018-05-27T08:03:20.392Z,73.00
2018-05-27T08:13:27.978Z,71.10
2018-05-27T08:18:31.235Z,68.80
2018-05-27T08:23:35.830Z,70.10
2018-05-27T08:28:40.090Z,67.00
2018-05-27T08:33:44.678Z,64.80
2018-05-27T08:38:47.769Z,65.10
2018-05-27T08:43:50.902Z,61.40
2018-05-27T08:53:58.843Z,59.60
2018-05-27T09:04:06.372Z,58.70
2018-05-27T09:09:09.469Z,56.50
2018-05-27T09:14:13.697Z,58.50
2018-05-27T09:19:16.791Z,55.90
2018-05-27T09:24:20.275Z,56.50
2018-05-27T09:29:24.137Z,54.20
2018-05-27T09:34:27.986Z,52.50
2018-05-27T09:39:31.833Z,52.40
2018-05-27T09:44:34.926Z,53.90
2018-05-27T09:49:38.014Z,51.30
2018-05-27T09:54:41.858Z,50.10
2018-05-27T09:59:44.950Z,52.50
2018-05-27T10:04:48.789Z,54.10
2018-05-27T10:09:51.877Z,53.10
2018-05-27T10:14:55.367Z,53.50
2018-05-27T10:19:59.345Z,54.50
2018-05-27T10:25:02.434Z,56.80
2018-05-27T10:30:05.514Z,56.00
2018-05-27T10:35:09.749Z,58.10
2018-05-27T10:40:12.879Z,57.60
2018-05-27T10:45:15.963Z,58.20
2018-05-27T10:50:22.937Z,62.80
2018-05-27T10:55:26.026Z,61.30
2018-05-27T11:00:30.245Z,62.30
2018-05-27T11:05:33.329Z,61.40
2018-05-27T11:15:43.070Z,61.30
2018-05-27T11:20:47.685Z,60.90
2018-05-27T11:25:51.152Z,63.70
2018-05-27T11:30:55.371Z,65.70
2018-05-27T11:35:58.494Z,68.60
2018-05-27T11:41:02.337Z,70.50
2018-05-27T11:46:05.414Z,71.50
2018-05-27T11:51:08.506Z,72.70
2018-05-27T11:56:12.374Z,75.10
2018-05-27T12:01:15.450Z,77.50
2018-05-27T12:06:18.927Z,77.90
2018-05-27T12:11:22.414Z,79.60
2018-05-27T12:21:30.314Z,78.80
2018-05-27T12:26:33.399Z,80.40
2018-05-27T12:36:42.413Z,86.90
2018-05-27T12:41:47.006Z,88.60
2018-05-27T12:46:50.494Z,90.50
2018-05-27T12:51:55.093Z,91.30
2018-05-27T13:02:02.995Z,91.70
2018-05-27T13:07:06.488Z,92.30
2018-05-27T13:12:09.568Z,91.50
2018-05-27T13:17:13.813Z,92.30
2018-05-27T13:22:18.401Z,91.70
2018-05-27T13:27:21.884Z,90.50
2018-05-27T13:32:24.973Z,88.20
2018-05-27T13:37:28.904Z,86.90
2018-05-27T13:42:32.787Z,88.40
2018-05-27T13:47:35.874Z,82.90
2018-05-27T13:52:38.974Z,82.60
2018-05-27T14:12:56.103Z,81.80
2018-05-27T14:18:00.698Z,78.20
2018-05-27T14:23:05.331Z,79.30
2018-05-27T14:28:09.545Z,79.20
2018-05-27T14:38:17.829Z,74.80
2018-05-27T14:43:22.047Z,73.90
2018-05-27T14:48:25.130Z,73.10
2018-05-27T14:53:29.726Z,72.20
2018-05-27T15:03:37.255Z,71.90
2018-05-27T15:13:45.164Z,72.00
2018-05-27T15:18:49.760Z,72.20
2018-05-27T15:23:53.242Z,73.20
2018-05-27T15:28:57.831Z,72.90
2018-05-27T15:39:06.063Z,72.50
2018-05-27T15:44:10.281Z,73.10
2018-05-27T15:54:17.797Z,78.70
2018-05-27T15:59:21.636Z,79.90
2018-05-27T16:04:24.727Z,86.70
2018-05-27T16:09:27.813Z,86.60
2018-05-27T16:14:30.890Z,82.80
2018-05-27T16:19:35.101Z,83.90
2018-05-27T16:24:38.193Z,82.00
2018-05-27T16:29:41.268Z,84.20
2018-05-27T16:34:45.490Z,86.30
2018-05-27T16:39:48.852Z,85.40
2018-05-27T16:49:56.780Z,88.70
2018-05-27T16:55:00.994Z,90.30
2018-05-27T17:00:05.048Z,90.90
2018-05-27T17:05:09.269Z,91.80
2018-05-27T17:10:13.485Z,92.10
2018-05-27T17:20:21.015Z,90.70
2018-05-27T17:25:24.884Z,92.10
2018-05-27T17:35:33.191Z,93.30
2018-05-27T17:40:36.683Z,92.30
2018-05-27T17:45:39.787Z,93.10
2018-05-27T17:50:44.018Z,92.80
2018-05-27T17:55:48.284Z,93.10
2018-05-27T18:00:51.371Z,93.50
2018-05-27T18:10:59.650Z,93.60
2018-05-27T18:16:04.247Z,93.50
2018-05-27T18:21:09.430Z,93.20
2018-05-27T18:26:12.908Z,92.30
2018-05-27T18:31:15.994Z,91.60
2018-05-27T18:36:19.849Z,91.30
2018-05-27T18:41:24.088Z,91.00
2018-05-27T18:51:32.034Z,92.30
2018-05-27T19:01:41.066Z,94.40
2018-05-27T19:11:48.997Z,95.50
2018-05-27T19:21:56.918Z,96.20
2018-05-27T19:27:01.516Z,96.70
2018-05-27T19:32:06.157Z,97.50
2018-05-27T19:37:11.153Z,97.60
2018-05-27T19:42:14.311Z,96.90
2018-05-27T19:47:17.370Z,98.00
2018-05-27T19:52:20.490Z,98.20
2018-05-27T20:07:34.373Z,97.40
2018-05-27T20:12:38.226Z,97.90
2018-05-27T20:17:42.833Z,98.30
2018-05-27T20:22:46.333Z,98.50
2018-05-27T20:27:50.954Z,99.00
2018-05-27T20:32:54.441Z,99.30
2018-05-27T20:37:58.305Z,99.40
2018-05-27T20:48:07.380Z,99.80
2018-05-27T20:53:10.473Z,99.90
2018-05-27T20:58:13.566Z,99.90
2018-05-27T21:03:16.657Z,99.90
2018-05-27T21:08:20.529Z,99.90
2018-05-27T21:13:25.018Z,99.70
2018-05-27T21:18:28.874Z,99.90
2018-05-27T21:23:31.975Z,99.90
2018-05-27T21:28:36.202Z,99.90
2018-05-27T21:33:39.774Z,99.80
2018-05-27T21:43:48.410Z,99.90
2018-05-27T21:48:53.018Z,99.80
2018-05-27T21:53:56.094Z,99.70
2018-05-27T21:59:00.682Z,99.70
2018-05-27T22:04:05.322Z,99.80
2018-05-27T22:09:09.154Z,99.80
2018-05-27T22:14:12.243Z,99.90
2018-05-27T22:19:15.330Z,99.90
2018-05-27T22:29:22.842Z,99.90
2018-05-27T22:34:25.921Z,99.90
2018-05-27T22:39:29.023Z,99.90
2018-05-27T22:44:32.497Z,99.90
2018-05-27T22:54:40.777Z,99.90
2018-05-27T23:04:49.423Z,99.90
2018-05-27T23:09:53.640Z,99.90
2018-05-27T23:20:02.885Z,99.90
2018-05-27T23:25:05.965Z,99.90
2018-05-27T23:30:09.058Z,99.90
2018-05-27T23:35:12.896Z,99.90
2018-05-27T23:40:15.973Z,99.90
2018-05-27T23:45:19.455Z,99.90
2018-05-27T23:50:22.538Z,99.90
2018-05-27T23:55:26.017Z,99.90
